createdAt,value
2023-01-05T00:01:48.266Z,10.28
2023-01-05T00:04:16.416Z,10.23
2023-01-05T00:06:45.664Z,10.29
2023-01-05T00:09:15.466Z,10.33
2023-01-05T00:12:00.531Z,10.23
2023-01-05T00:14:47.802Z,10.29
2023-01-05T00:17:34.673Z,10.30
2023-01-05T00:20:20.776Z,10.24
2023-01-05T00:22:51.221Z,10.31
2023-01-05T00:25:21.280Z,10.36
2023-01-05T00:27:51.412Z,10.39
2023-01-05T00:30:21.288Z,10.34
2023-01-05T00:32:49.494Z,10.42
2023-01-05T00:35:17.923Z,10.45
2023-01-05T00:37:46.323Z,10.48
2023-01-05T00:40:17.222Z,10.49
2023-01-05T00:42:45.372Z,10.49
2023-01-05T00:45:14.298Z,10.55
2023-01-05T00:47:42.293Z,10.53
2023-01-05T00:50:11.627Z,10.54
2023-01-05T00:52:39.334Z,10.55
2023-01-05T00:55:08.304Z,10.60
2023-01-05T00:57:37.456Z,10.56
2023-01-05T01:00:06.804Z,10.57
2023-01-05T01:02:34.494Z,10.57
2023-01-05T01:05:02.243Z,10.47
2023-01-05T01:07:29.886Z,10.50
2023-01-05T01:09:57.499Z,10.46
2023-01-05T01:12:25.212Z,10.50
2023-01-05T01:14:54.165Z,10.49
2023-01-05T01:17:21.795Z,10.54
2023-01-05T01:19:49.484Z,10.49
2023-01-05T01:22:17.184Z,10.49
2023-01-05T01:24:44.855Z,10.43
2023-01-05T01:27:13.308Z,10.42
2023-01-05T01:29:41.098Z,10.47
2023-01-05T01:32:10.169Z,10.47
2023-01-05T01:34:39.443Z,10.40
2023-01-05T01:37:07.065Z,10.35
2023-01-05T01:39:34.877Z,10.39
2023-01-05T01:42:02.455Z,10.37
2023-01-05T01:44:49.789Z,10.42
2023-01-05T01:47:23.617Z,10.40
2023-01-05T01:49:52.088Z,10.41
2023-01-05T01:52:20.436Z,10.36
2023-01-05T01:54:48.068Z,10.44
2023-01-05T01:57:16.232Z,10.39
2023-01-05T01:59:45.604Z,10.38
2023-01-05T02:02:13.970Z,10.37
2023-01-05T02:04:44.397Z,10.32
2023-01-05T02:07:13.263Z,10.30
2023-01-05T02:09:41.060Z,10.34
2023-01-05T02:12:16.577Z,10.34
2023-01-05T02:14:52.260Z,10.38
2023-01-05T02:17:25.807Z,10.26
2023-01-05T02:20:14.517Z,10.25
2023-01-05T02:23:07.171Z,10.32
2023-01-05T02:25:47.501Z,10.28
2023-01-05T02:28:24.494Z,10.32
2023-01-05T02:31:09.992Z,10.32
2023-01-05T02:33:55.023Z,10.32
2023-01-05T02:36:28.887Z,10.27
2023-01-05T02:39:00.912Z,10.27
2023-01-05T02:41:33.293Z,10.27
2023-01-05T02:44:01.751Z,10.18
2023-01-05T02:46:31.207Z,10.22
2023-01-05T02:49:00.063Z,10.15
2023-01-05T02:51:31.083Z,10.18
2023-01-05T02:54:03.103Z,10.11
2023-01-05T02:56:34.127Z,10.07
2023-01-05T02:59:04.469Z,10.12
2023-01-05T03:01:36.307Z,10.14
2023-01-05T03:04:07.585Z,10.17
2023-01-05T03:06:38.753Z,10.10
2023-01-05T03:09:07.410Z,10.11
2023-01-05T03:11:57.690Z,10.06
2023-01-05T03:14:29.422Z,10.00
2023-01-05T03:17:00.783Z,10.02
2023-01-05T03:19:40.400Z,10.05
2023-01-05T03:22:30.569Z,9.96
2023-01-05T03:25:15.925Z,9.90
2023-01-05T03:28:01.673Z,9.91
2023-01-05T03:30:53.516Z,9.84
2023-01-05T03:33:49.893Z,9.72
2023-01-05T03:36:19.654Z,9.70
2023-01-05T03:38:48.784Z,9.76
2023-01-05T03:41:17.434Z,9.74
2023-01-05T03:43:45.148Z,9.62
2023-01-05T03:46:15.492Z,9.73
2023-01-05T03:48:44.485Z,9.67
2023-01-05T03:51:12.175Z,9.71
2023-01-05T03:53:39.819Z,9.70
2023-01-05T03:56:08.223Z,9.74
2023-01-05T03:58:35.833Z,9.75
2023-01-05T04:01:03.918Z,9.75
2023-01-05T04:03:32.452Z,9.71
2023-01-05T04:06:02.069Z,9.78
2023-01-05T04:08:29.732Z,9.70
2023-01-05T04:10:57.350Z,9.69
2023-01-05T04:13:25.971Z,9.68
2023-01-05T04:15:53.649Z,9.66
2023-01-05T04:18:21.311Z,9.67
2023-01-05T04:20:48.882Z,9.69
2023-01-05T04:23:17.911Z,9.64
2023-01-05T04:25:47.547Z,9.68
2023-01-05T04:28:15.246Z,9.63
2023-01-05T04:30:44.382Z,9.57
2023-01-05T04:33:12.610Z,9.52
2023-01-05T04:35:40.250Z,9.59
2023-01-05T04:38:08.045Z,9.67
2023-01-05T04:40:36.982Z,9.61
2023-01-05T04:43:04.966Z,9.60
2023-01-05T04:45:34.059Z,9.68
2023-01-05T04:48:01.852Z,9.62
2023-01-05T04:50:29.642Z,9.62
2023-01-05T04:52:57.254Z,9.50
2023-01-05T04:55:25.145Z,9.50
2023-01-05T04:57:54.215Z,9.54
2023-01-05T05:00:21.977Z,9.55
2023-01-05T05:02:50.098Z,9.55
2023-01-05T05:05:17.906Z,9.54
2023-01-05T05:07:45.671Z,9.55
2023-01-05T05:10:15.993Z,9.51
2023-01-05T05:12:43.565Z,9.47
2023-01-05T05:15:13.317Z,9.46
2023-01-05T05:17:41.166Z,9.48
2023-01-05T05:20:10.106Z,9.54
2023-01-05T05:22:37.844Z,9.52
2023-01-05T05:25:06.300Z,9.47
2023-01-05T05:27:33.910Z,9.45
2023-01-05T05:30:01.614Z,9.49
2023-01-05T05:32:31.330Z,9.48
2023-01-05T05:34:58.931Z,9.48
2023-01-05T05:37:26.510Z,9.41
2023-01-05T05:39:54.104Z,9.50
2023-01-05T05:42:21.795Z,9.51
2023-01-05T05:44:49.416Z,9.45
2023-01-05T05:47:17.049Z,9.43
2023-01-05T05:49:46.036Z,9.43
2023-01-05T05:52:13.678Z,9.36
2023-01-05T05:54:41.411Z,9.43
2023-01-05T05:57:09.040Z,9.43
2023-01-05T05:59:36.694Z,9.41
2023-01-05T06:02:04.631Z,9.43
2023-01-05T06:04:32.476Z,9.44
2023-01-05T06:07:01.576Z,9.32
2023-01-05T06:09:29.321Z,9.37
2023-01-05T06:11:57.176Z,9.35
2023-01-05T06:14:24.981Z,9.40
2023-01-05T06:16:52.614Z,9.34
2023-01-05T06:19:20.225Z,9.36
2023-01-05T06:21:47.898Z,9.33
2023-01-05T06:24:16.925Z,9.33
2023-01-05T06:26:45.676Z,9.35
2023-01-05T06:29:13.350Z,9.33
2023-01-05T06:31:40.989Z,9.30
2023-01-05T06:34:08.692Z,9.36
2023-01-05T06:36:36.350Z,9.32
2023-01-05T06:39:04.222Z,9.29
2023-01-05T06:41:35.310Z,9.27
2023-01-05T06:44:03.134Z,9.30
2023-01-05T06:46:30.956Z,9.27
2023-01-05T06:48:58.677Z,9.19
2023-01-05T06:51:26.353Z,9.15
2023-01-05T06:53:54.006Z,9.22
2023-01-05T06:56:21.646Z,9.23
2023-01-05T06:58:50.703Z,9.26
2023-01-05T07:01:18.476Z,9.24
2023-01-05T07:03:46.270Z,9.15
2023-01-05T07:06:15.312Z,9.03
2023-01-05T07:08:43.273Z,8.92
2023-01-05T07:11:10.950Z,8.84
2023-01-05T07:13:38.560Z,8.83
2023-01-05T07:16:08.357Z,8.74
2023-01-05T07:18:35.953Z,8.72
2023-01-05T07:21:03.828Z,8.62
2023-01-05T07:23:31.504Z,8.67
2023-01-05T07:26:01.705Z,8.66
2023-01-05T07:28:29.760Z,8.67
2023-01-05T07:30:57.343Z,8.63
2023-01-05T07:33:26.408Z,8.69
2023-01-05T07:35:53.990Z,8.61
2023-01-05T07:38:21.667Z,8.66
2023-01-05T07:40:49.202Z,8.64
2023-01-05T07:43:17.463Z,8.63
2023-01-05T07:45:45.154Z,8.65
2023-01-05T07:48:12.725Z,8.64
2023-01-05T07:50:41.715Z,8.60
2023-01-05T07:53:09.282Z,8.66
2023-01-05T07:55:36.891Z,8.79
2023-01-05T07:58:04.463Z,8.73
2023-01-05T08:00:32.195Z,8.76
2023-01-05T08:02:59.771Z,8.79
2023-01-05T08:05:30.199Z,8.78
2023-01-05T08:07:59.105Z,8.80
2023-01-05T08:10:29.778Z,8.85
2023-01-05T08:13:31.445Z,8.80
2023-01-05T08:16:00.242Z,8.83
2023-01-05T08:18:28.470Z,8.78
2023-01-05T08:20:58.136Z,8.83
2023-01-05T08:23:28.513Z,8.92
2023-01-05T08:25:56.478Z,8.94
2023-01-05T08:28:28.364Z,8.96
2023-01-05T08:31:02.062Z,8.96
2023-01-05T08:33:29.714Z,8.93
2023-01-05T08:35:57.268Z,8.99
2023-01-05T08:38:24.972Z,9.10
2023-01-05T08:40:54.565Z,9.10
2023-01-05T08:43:22.189Z,9.15
2023-01-05T08:45:50.869Z,9.14
2023-01-05T08:48:18.525Z,9.25
2023-01-05T08:50:46.179Z,9.26
2023-01-05T08:53:14.070Z,9.19
2023-01-05T08:55:41.639Z,9.27
2023-01-05T08:58:10.550Z,9.29
2023-01-05T09:00:38.268Z,9.36
2023-01-05T09:03:06.467Z,9.30
2023-01-05T09:05:34.219Z,9.23
2023-01-05T09:08:01.808Z,9.28
2023-01-05T09:10:29.420Z,9.29
2023-01-05T09:12:57.057Z,9.22
2023-01-05T09:15:25.981Z,9.33
2023-01-05T09:17:53.717Z,9.35
2023-01-05T09:20:21.346Z,9.33
2023-01-05T09:22:48.948Z,9.32
2023-01-05T09:25:16.626Z,9.41
2023-01-05T09:27:44.351Z,9.48
2023-01-05T09:30:15.705Z,9.44
2023-01-05T09:32:44.663Z,9.53
2023-01-05T09:35:12.340Z,9.53
2023-01-05T09:37:39.960Z,9.61
2023-01-05T09:40:08.627Z,9.71
2023-01-05T09:42:38.043Z,9.71
2023-01-05T09:45:07.478Z,9.84
2023-01-05T09:47:38.046Z,9.83
2023-01-05T09:50:09.001Z,9.98
2023-01-05T09:52:38.594Z,10.17
2023-01-05T09:55:12.144Z,10.17
2023-01-05T09:57:41.092Z,10.18
2023-01-05T10:02:36.376Z,10.17
2023-01-05T10:05:06.243Z,10.19
2023-01-05T10:07:41.924Z,10.20
2023-01-05T10:10:17.088Z,10.12
2023-01-05T10:15:37.490Z,10.35
2023-01-05T10:18:05.376Z,10.39
2023-01-05T10:23:07.873Z,10.15
2023-01-05T10:28:15.551Z,10.51
2023-01-05T10:30:52.359Z,10.47
2023-01-05T10:33:39.600Z,10.55
2023-01-05T10:36:19.365Z,10.56
2023-01-05T10:38:56.454Z,10.54
2023-01-05T10:41:32.530Z,10.60
2023-01-05T10:44:09.272Z,10.68
2023-01-05T10:46:44.677Z,10.64
2023-01-05T10:49:18.025Z,10.78
2023-01-05T10:51:50.004Z,10.79
2023-01-05T10:54:32.903Z,10.73
2023-01-05T10:57:40.241Z,10.80
2023-01-05T11:00:12.802Z,10.82
2023-01-05T11:02:42.998Z,10.84
2023-01-05T11:05:27.105Z,10.86
2023-01-05T11:07:56.985Z,10.78
2023-01-05T11:10:29.544Z,10.84
2023-01-05T11:13:03.145Z,10.84
2023-01-05T11:15:32.430Z,10.97
2023-01-05T11:18:00.337Z,10.90
2023-01-05T11:20:28.685Z,10.93
2023-01-05T11:22:56.592Z,10.93
2023-01-05T11:25:28.513Z,10.85
2023-01-05T11:28:18.429Z,10.84
2023-01-05T11:30:59.082Z,10.82
2023-01-05T11:33:28.501Z,10.82
2023-01-05T11:35:56.733Z,10.97
2023-01-05T11:38:26.783Z,10.86
2023-01-05T11:40:56.111Z,10.85
2023-01-05T11:43:27.008Z,10.86
2023-01-05T11:45:55.967Z,11.08
2023-01-05T11:48:25.856Z,11.07
2023-01-05T11:50:57.271Z,11.13
2023-01-05T11:53:27.031Z,11.06
2023-01-05T11:56:01.912Z,10.98
2023-01-05T11:58:34.462Z,11.02
2023-01-05T12:01:31.864Z,11.04
2023-01-05T12:04:02.469Z,10.91
2023-01-05T12:06:53.006Z,10.93
2023-01-05T12:09:29.794Z,11.03
2023-01-05T12:12:11.018Z,10.83
2023-01-05T12:14:53.081Z,11.05
2023-01-05T12:17:25.019Z,10.94
2023-01-05T12:20:08.098Z,11.06
2023-01-05T12:22:51.408Z,11.15
2023-01-05T12:25:27.032Z,11.17
2023-01-05T12:28:08.941Z,11.26
2023-01-05T12:32:34.268Z,11.52
2023-01-05T12:34:12.931Z,11.69
2023-01-05T12:36:47.871Z,11.53
2023-01-05T12:39:35.360Z,11.39
2023-01-05T12:42:20.523Z,11.38
2023-01-05T12:45:09.149Z,11.28
2023-01-05T12:47:53.459Z,11.19
2023-01-05T12:50:27.048Z,11.09
2023-01-05T12:52:58.699Z,10.91
2023-01-05T12:55:29.082Z,10.81
2023-01-05T12:58:01.004Z,10.56
2023-01-05T13:00:31.156Z,10.66
2023-01-05T13:03:02.955Z,10.53
2023-01-05T13:05:33.928Z,10.53
2023-01-05T13:08:03.692Z,10.51
2023-01-05T13:10:38.617Z,10.37
2023-01-05T13:13:12.698Z,10.34
2023-01-05T13:15:42.595Z,10.34
2023-01-05T13:18:15.043Z,10.27
2023-01-05T13:20:46.625Z,10.34
2023-01-05T13:23:18.031Z,10.25
2023-01-05T13:25:51.588Z,10.23
2023-01-05T13:28:24.540Z,10.14
2023-01-05T13:31:18.327Z,10.09
2023-01-05T13:33:59.681Z,10.09
2023-01-05T13:36:38.518Z,10.06
2023-01-05T13:39:19.995Z,10.15
2023-01-05T13:42:02.072Z,10.22
2023-01-05T13:44:40.723Z,10.20
2023-01-05T13:47:29.278Z,10.19
2023-01-05T13:50:28.322Z,10.10
2023-01-05T13:53:13.607Z,10.23
2023-01-05T13:55:46.953Z,10.24
2023-01-05T13:58:39.970Z,10.23
2023-01-05T14:01:11.620Z,10.19
2023-01-05T14:03:42.557Z,10.02
2023-01-05T14:06:20.156Z,10.21
2023-01-05T14:08:54.149Z,10.16
2023-01-05T14:11:26.249Z,10.17
2023-01-05T14:13:58.444Z,10.22
2023-01-05T14:16:50.644Z,10.19
2023-01-05T14:19:24.359Z,10.17
2023-01-05T14:22:24.452Z,10.12
2023-01-05T14:24:54.272Z,10.11
2023-01-05T14:27:24.671Z,10.12
2023-01-05T14:30:23.901Z,10.13
2023-01-05T14:32:56.315Z,10.12
2023-01-05T14:35:30.955Z,10.06
2023-01-05T14:38:02.319Z,10.15
2023-01-05T14:40:34.643Z,10.11
2023-01-05T14:43:05.123Z,10.07
2023-01-05T14:45:35.434Z,10.02
2023-01-05T14:48:05.065Z,10.03
2023-01-05T14:50:35.807Z,10.03
2023-01-05T14:53:14.433Z,9.99
2023-01-05T14:56:03.456Z,10.03
2023-01-05T14:59:06.557Z,10.05
2023-01-05T15:04:17.311Z,10.00
2023-01-05T15:07:04.845Z,10.05
2023-01-05T15:09:44.431Z,9.99
2023-01-05T15:12:48.127Z,10.00
2023-01-05T15:15:26.666Z,9.92
2023-01-05T15:18:15.004Z,9.95
2023-01-05T15:21:10.821Z,9.91
2023-01-05T15:23:54.534Z,9.91
2023-01-05T15:26:36.450Z,9.86
2023-01-05T15:29:39.704Z,9.93
2023-01-05T15:32:13.779Z,9.79
2023-01-05T15:34:45.257Z,9.75
2023-01-05T15:37:15.810Z,9.61
2023-01-05T15:39:47.744Z,9.62
2023-01-05T15:42:19.681Z,9.66
2023-01-05T15:44:50.541Z,9.40
2023-01-05T15:47:21.377Z,9.59
2023-01-05T15:49:50.504Z,9.56
2023-01-05T15:52:20.825Z,9.56
2023-01-05T15:54:59.199Z,9.57
2023-01-05T15:57:26.882Z,9.52
2023-01-05T15:59:55.053Z,9.51
2023-01-05T16:02:25.791Z,9.50
2023-01-05T16:05:14.067Z,9.50
2023-01-05T16:07:43.822Z,9.46
2023-01-05T16:10:26.284Z,9.36
2023-01-05T16:12:57.218Z,9.43
2023-01-05T16:15:25.950Z,9.22
2023-01-05T16:17:58.279Z,9.44
2023-01-05T16:20:26.922Z,9.32
2023-01-05T16:23:04.535Z,9.42
2023-01-05T16:25:40.351Z,9.47
2023-01-05T16:28:16.989Z,9.51
2023-01-05T16:30:46.106Z,9.44
2023-01-05T16:33:28.175Z,9.39
2023-01-05T16:36:09.019Z,9.59
2023-01-05T16:38:37.519Z,9.53
2023-01-05T16:41:11.139Z,9.62
2023-01-05T16:43:44.087Z,9.48
2023-01-05T16:46:29.300Z,9.48
2023-01-05T16:49:01.084Z,9.52
2023-01-05T16:51:41.602Z,9.53
2023-01-05T16:54:22.608Z,9.29
2023-01-05T16:56:57.832Z,9.33
2023-01-05T16:59:34.765Z,9.43
2023-01-05T17:02:02.894Z,9.20
2023-01-05T17:04:31.852Z,9.47
2023-01-05T17:07:00.250Z,9.48
2023-01-05T17:09:30.551Z,9.34
2023-01-05T17:11:58.297Z,9.41
2023-01-05T17:14:27.322Z,9.39
2023-01-05T17:16:55.287Z,9.50
2023-01-05T17:19:23.178Z,9.21
2023-01-05T17:21:56.294Z,9.48
2023-01-05T17:24:24.669Z,9.37
2023-01-05T17:26:52.270Z,9.49
2023-01-05T17:29:21.361Z,9.48
2023-01-05T17:31:49.032Z,9.37
2023-01-05T17:34:16.946Z,9.33
2023-01-05T17:36:44.940Z,9.35
2023-01-05T17:39:15.694Z,9.19
2023-01-05T17:41:43.292Z,9.46
2023-01-05T17:44:10.921Z,9.24
2023-01-05T17:46:40.630Z,9.45
2023-01-05T17:49:08.610Z,9.38
2023-01-05T17:51:36.274Z,9.45
2023-01-05T17:54:03.906Z,9.51
2023-01-05T17:59:00.706Z,9.32
2023-01-05T18:01:28.364Z,9.29
2023-01-05T18:03:56.144Z,9.28
2023-01-05T18:06:23.877Z,9.44
2023-01-05T18:08:51.656Z,9.34
2023-01-05T18:11:20.619Z,9.47
2023-01-05T18:13:52.107Z,9.39
2023-01-05T18:16:20.076Z,9.37
2023-01-05T18:18:47.968Z,9.38
2023-01-05T18:21:15.618Z,9.28
2023-01-05T18:23:43.567Z,9.32
2023-01-05T18:26:11.351Z,9.39
2023-01-05T18:28:39.412Z,9.38
2023-01-05T18:31:12.529Z,9.38
2023-01-05T18:33:40.351Z,9.29
2023-01-05T18:36:08.896Z,9.37
2023-01-05T18:38:36.490Z,9.38
2023-01-05T18:41:04.092Z,9.13
2023-01-05T18:43:32.843Z,9.39
2023-01-05T18:46:00.861Z,9.34
2023-01-05T18:48:29.909Z,9.28
2023-01-05T18:50:57.874Z,9.28
2023-01-05T18:53:26.271Z,9.25
2023-01-05T18:55:54.308Z,9.31
2023-01-05T18:58:22.025Z,9.30
2023-01-05T19:00:49.714Z,9.37
2023-01-05T19:03:17.316Z,9.36
2023-01-05T19:05:46.436Z,9.37
2023-01-05T19:08:14.601Z,9.31
2023-01-05T19:10:42.606Z,9.28
2023-01-05T19:13:10.308Z,9.31
2023-01-05T19:15:38.776Z,9.25
2023-01-05T19:18:06.960Z,9.26
2023-01-05T19:20:34.649Z,9.28
2023-01-05T19:23:03.749Z,9.25
2023-01-05T19:25:31.676Z,9.15
2023-01-05T19:28:01.483Z,9.09
2023-01-05T19:30:30.111Z,9.14
2023-01-05T19:32:57.724Z,9.16
2023-01-05T19:35:25.397Z,9.11
2023-01-05T19:37:54.096Z,9.12
2023-01-05T19:40:25.145Z,9.03
2023-01-05T19:42:52.756Z,9.19
2023-01-05T19:45:20.513Z,9.04
2023-01-05T19:47:48.240Z,9.02
2023-01-05T19:50:16.016Z,9.09
2023-01-05T19:52:43.875Z,9.00
2023-01-05T19:55:13.133Z,8.91
2023-01-05T19:57:42.129Z,8.83
2023-01-05T20:00:11.229Z,8.85
2023-01-05T20:02:39.246Z,8.87
2023-01-05T20:05:07.826Z,8.85
2023-01-05T20:07:35.486Z,8.81
2023-01-05T20:10:03.266Z,8.86
2023-01-05T20:12:33.894Z,8.78
2023-01-05T20:15:04.820Z,8.81
2023-01-05T20:17:33.000Z,8.83
2023-01-05T20:20:00.585Z,8.80
2023-01-05T20:22:28.284Z,8.85
2023-01-05T20:24:55.945Z,8.92
2023-01-05T20:27:23.588Z,8.91
2023-01-05T20:29:51.207Z,8.90
2023-01-05T20:32:22.450Z,8.88
2023-01-05T20:34:52.378Z,8.83
2023-01-05T20:37:20.270Z,8.70
2023-01-05T20:39:47.891Z,8.64
2023-01-05T20:42:15.501Z,8.83
2023-01-05T20:44:46.253Z,8.84
2023-01-05T20:47:15.200Z,8.84
2023-01-05T20:49:45.155Z,8.59
2023-01-05T20:52:13.897Z,8.76
2023-01-05T20:54:41.918Z,8.75
2023-01-05T20:57:10.144Z,8.73
2023-01-05T20:59:40.565Z,8.72
2023-01-05T21:02:21.971Z,8.52
2023-01-05T21:04:52.437Z,8.74
2023-01-05T21:07:20.488Z,8.71
2023-01-05T21:09:48.498Z,8.70
2023-01-05T21:12:16.291Z,8.78
2023-01-05T21:14:44.154Z,8.77
2023-01-05T21:17:11.831Z,8.81
2023-01-05T21:19:39.597Z,8.85
2023-01-05T21:22:08.817Z,8.84
2023-01-05T21:24:37.002Z,8.78
2023-01-05T21:27:04.619Z,8.92
2023-01-05T21:29:33.037Z,8.96
2023-01-05T21:32:00.768Z,8.96
2023-01-05T21:34:28.578Z,8.78
2023-01-05T21:36:56.224Z,8.95
2023-01-05T21:39:28.361Z,8.93
2023-01-05T21:42:15.972Z,8.88
2023-01-05T21:44:43.654Z,8.88
2023-01-05T21:47:11.411Z,8.96
2023-01-05T21:49:39.164Z,8.98
2023-01-05T21:52:24.628Z,8.98
2023-01-05T21:55:11.067Z,9.07
2023-01-05T21:57:38.739Z,9.18
2023-01-05T22:00:07.513Z,9.22
2023-01-05T22:02:35.193Z,9.34
2023-01-05T22:05:02.884Z,9.31
2023-01-05T22:07:30.698Z,9.17
2023-01-05T22:09:59.793Z,9.27
2023-01-05T22:12:27.488Z,9.33
2023-01-05T22:14:55.135Z,9.29
2023-01-05T22:17:22.841Z,9.32
2023-01-05T22:19:53.262Z,9.33
2023-01-05T22:22:20.990Z,9.32
2023-01-05T22:24:48.802Z,9.25
2023-01-05T22:27:17.997Z,9.19
2023-01-05T22:29:45.601Z,9.16
2023-01-05T22:32:13.207Z,8.91
2023-01-05T22:34:43.776Z,9.20
2023-01-05T22:37:11.495Z,8.92
2023-01-05T22:39:39.275Z,9.05
2023-01-05T22:42:07.191Z,9.03
2023-01-05T22:44:36.221Z,9.26
2023-01-05T22:47:03.903Z,9.28
2023-01-05T22:49:31.591Z,9.28
2023-01-05T22:51:59.193Z,9.30
2023-01-05T22:54:26.909Z,9.24
2023-01-05T22:56:54.975Z,9.29
2023-01-05T22:59:24.073Z,9.35
2023-01-05T23:01:54.174Z,9.38
2023-01-05T23:04:22.704Z,9.40
2023-01-05T23:06:51.125Z,9.43
2023-01-05T23:09:19.560Z,9.40
2023-01-05T23:11:47.904Z,9.58
2023-01-05T23:14:18.698Z,9.57
2023-01-05T23:16:46.928Z,9.41
2023-01-05T23:19:17.275Z,9.56
2023-01-05T23:21:45.201Z,9.58
2023-01-05T23:24:12.976Z,9.56
2023-01-05T23:26:42.341Z,9.53
2023-01-05T23:29:10.161Z,9.55
2023-01-05T23:31:37.944Z,9.48
2023-01-05T23:34:05.743Z,9.56
2023-01-05T23:36:37.539Z,9.53
2023-01-05T23:39:05.258Z,9.45
2023-01-05T23:46:31.511Z,9.58
2023-01-05T23:48:59.137Z,9.62
2023-01-05T23:51:26.975Z,9.57
2023-01-05T23:53:58.888Z,9.61
2023-01-05T23:56:30.109Z,9.46
2023-01-05T23:59:00.466Z,9.57
